sensor_id;sensor_type;location;lat;lon;timestamp;temperature;humidity
51950;DHT22;37974;53.218;6.640;2024-03-17T00:00:45;3.40;99.90
51950;DHT22;37974;53.218;6.640;2024-03-17T00:03:10;3.40;99.90
51950;DHT22;37974;53.218;6.640;2024-03-17T00:05:37;3.40;99.90
51950;DHT22;37974;53.218;6.640;2024-03-17T00:08:04;3.90;99.90
51950;DHT22;37974;53.218;6.640;2024-03-17T00:10:31;3.40;99.90
51950;DHT22;37974;53.218;6.640;2024-03-17T00:12:57;3.80;99.90
51950;DHT22;37974;53.218;6.640;2024-03-17T00:15:24;4.10;99.90
51950;DHT22;37974;53.218;6.640;2024-03-17T00:17:49;3.30;99.90
51950;DHT22;37974;53.218;6.640;2024-03-17T00:20:15;3.90;99.90
51950;DHT22;37974;53.218;6.640;2024-03-17T00:22:48;3.80;99.90
51950;DHT22;37974;53.218;6.640;2024-03-17T00:25:14;3.30;99.90
51950;DHT22;37974;53.218;6.640;2024-03-17T00:27:39;3.30;99.90
51950;DHT22;37974;53.218;6.640;2024-03-17T00:30:09;3.30;99.90
51950;DHT22;37974;53.218;6.640;2024-03-17T00:32:38;3.20;99.90
51950;DHT22;37974;53.218;6.640;2024-03-17T00:35:06;3.20;99.90
51950;DHT22;37974;53.218;6.640;2024-03-17T00:37:32;3.20;99.90
51950;DHT22;37974;53.218;6.640;2024-03-17T00:40:00;3.20;99.90
51950;DHT22;37974;53.218;6.640;2024-03-17T00:42:25;3.80;99.90
51950;DHT22;37974;53.218;6.640;2024-03-17T00:44:51;3.10;99.90
51950;DHT22;37974;53.218;6.640;2024-03-17T00:47:17;3.60;99.90
51950;DHT22;37974;53.218;6.640;2024-03-17T00:49:43;3.40;99.90
51950;DHT22;37974;53.218;6.640;2024-03-17T00:52:08;3.50;99.90
51950;DHT22;37974;53.218;6.640;2024-03-17T00:54:34;3.00;99.90
51950;DHT22;37974;53.218;6.640;2024-03-17T00:57:00;3.00;99.90
51950;DHT22;37974;53.218;6.640;2024-03-17T00:59:27;2.90;99.90
51950;DHT22;37974;53.218;6.640;2024-03-17T01:01:52;3.80;99.90
51950;DHT22;37974;53.218;6.640;2024-03-17T01:04:18;2.90;99.90
51950;DHT22;37974;53.218;6.640;2024-03-17T01:06:44;2.80;99.90
51950;DHT22;37974;53.218;6.640;2024-03-17T01:09:10;2.80;99.90
51950;DHT22;37974;53.218;6.640;2024-03-17T01:11:35;2.70;99.90
51950;DHT22;37974;53.218;6.640;2024-03-17T01:14:01;2.70;99.90
51950;DHT22;37974;53.218;6.640;2024-03-17T01:16:27;3.90;99.90
51950;DHT22;37974;53.218;6.640;2024-03-17T01:18:53;2.60;99.90
51950;DHT22;37974;53.218;6.640;2024-03-17T01:21:20;3.40;99.90
51950;DHT22;37974;53.218;6.640;2024-03-17T01:23:48;2.60;99.90
51950;DHT22;37974;53.218;6.640;2024-03-17T01:26:14;3.60;99.90
51950;DHT22;37974;53.218;6.640;2024-03-17T01:28:40;2.60;99.90
51950;DHT22;37974;53.218;6.640;2024-03-17T01:31:06;3.20;99.90
51950;DHT22;37974;53.218;6.640;2024-03-17T01:33:32;2.50;99.90
51950;DHT22;37974;53.218;6.640;2024-03-17T01:35:58;2.60;99.90
51950;DHT22;37974;53.218;6.640;2024-03-17T01:38:23;3.40;99.90
51950;DHT22;37974;53.218;6.640;2024-03-17T01:40:49;2.40;99.90
51950;DHT22;37974;53.218;6.640;2024-03-17T01:43:15;2.70;99.90
51950;DHT22;37974;53.218;6.640;2024-03-17T01:45:41;2.30;99.90
51950;DHT22;37974;53.218;6.640;2024-03-17T01:48:15;2.40;99.90
51950;DHT22;37974;53.218;6.640;2024-03-17T01:50:42;2.40;99.90
51950;DHT22;37974;53.218;6.640;2024-03-17T01:53:11;2.90;99.90
51950;DHT22;37974;53.218;6.640;2024-03-17T01:55:40;2.40;99.90
51950;DHT22;37974;53.218;6.640;2024-03-17T01:58:08;2.40;99.90
51950;DHT22;37974;53.218;6.640;2024-03-17T02:00:36;2.80;99.90
51950;DHT22;37974;53.218;6.640;2024-03-17T02:03:04;2.80;99.90
51950;DHT22;37974;53.218;6.640;2024-03-17T02:05:31;2.30;99.90
51950;DHT22;37974;53.218;6.640;2024-03-17T02:07:57;2.20;99.90
51950;DHT22;37974;53.218;6.640;2024-03-17T02:10:23;2.90;99.90
51950;DHT22;37974;53.218;6.640;2024-03-17T02:12:49;2.20;99.90
51950;DHT22;37974;53.218;6.640;2024-03-17T02:15:17;2.20;99.90
51950;DHT22;37974;53.218;6.640;2024-03-17T02:17:43;3.10;99.90
51950;DHT22;37974;53.218;6.640;2024-03-17T02:20:09;2.70;99.90
51950;DHT22;37974;53.218;6.640;2024-03-17T02:22:37;2.10;99.90
51950;DHT22;37974;53.218;6.640;2024-03-17T02:25:03;2.10;99.90
51950;DHT22;37974;53.218;6.640;2024-03-17T02:27:29;2.00;99.90
51950;DHT22;37974;53.218;6.640;2024-03-17T02:29:55;2.90;99.90
51950;DHT22;37974;53.218;6.640;2024-03-17T02:32:21;2.00;99.90
51950;DHT22;37974;53.218;6.640;2024-03-17T02:34:48;2.70;99.90
51950;DHT22;37974;53.218;6.640;2024-03-17T02:37:14;2.00;99.90
51950;DHT22;37974;53.218;6.640;2024-03-17T02:39:41;2.10;99.90
51950;DHT22;37974;53.218;6.640;2024-03-17T02:42:08;2.00;99.90
51950;DHT22;37974;53.218;6.640;2024-03-17T02:44:35;2.10;99.90
51950;DHT22;37974;53.218;6.640;2024-03-17T02:47:03;2.90;99.90
51950;DHT22;37974;53.218;6.640;2024-03-17T02:49:30;2.00;99.90
51950;DHT22;37974;53.218;6.640;2024-03-17T02:52:03;2.40;99.90
51950;DHT22;37974;53.218;6.640;2024-03-17T02:54:31;1.90;99.90
51950;DHT22;37974;53.218;6.640;2024-03-17T02:56:57;2.40;99.90
51950;DHT22;37974;53.218;6.640;2024-03-17T02:59:23;2.40;99.90
51950;DHT22;37974;53.218;6.640;2024-03-17T03:01:48;2.50;99.90
51950;DHT22;37974;53.218;6.640;2024-03-17T03:04:14;2.80;99.90
51950;DHT22;37974;53.218;6.640;2024-03-17T03:06:41;3.00;99.90
51950;DHT22;37974;53.218;6.640;2024-03-17T03:09:07;2.10;99.90
51950;DHT22;37974;53.218;6.640;2024-03-17T03:11:39;3.10;99.90
51950;DHT22;37974;53.218;6.640;2024-03-17T03:14:05;3.30;99.90
51950;DHT22;37974;53.218;6.640;2024-03-17T03:16:31;2.80;99.90
51950;DHT22;37974;53.218;6.640;2024-03-17T03:18:57;2.40;99.90
51950;DHT22;37974;53.218;6.640;2024-03-17T03:21:22;2.40;99.90
51950;DHT22;37974;53.218;6.640;2024-03-17T03:23:48;2.40;99.90
51950;DHT22;37974;53.218;6.640;2024-03-17T03:26:14;2.40;99.90
51950;DHT22;37974;53.218;6.640;2024-03-17T03:28:40;3.30;99.90
51950;DHT22;37974;53.218;6.640;2024-03-17T03:31:05;3.30;99.90
51950;DHT22;37974;53.218;6.640;2024-03-17T03:33:32;3.30;99.90
51950;DHT22;37974;53.218;6.640;2024-03-17T03:35:58;2.70;99.90
51950;DHT22;37974;53.218;6.640;2024-03-17T03:38:24;3.20;99.90
51950;DHT22;37974;53.218;6.640;2024-03-17T03:40:50;2.80;99.90
51950;DHT22;37974;53.218;6.640;2024-03-17T03:43:15;3.10;99.90
51950;DHT22;37974;53.218;6.640;2024-03-17T03:45:41;3.10;99.90
51950;DHT22;37974;53.218;6.640;2024-03-17T03:48:08;2.90;99.90
51950;DHT22;37974;53.218;6.640;2024-03-17T03:50:35;3.00;99.90
51950;DHT22;37974;53.218;6.640;2024-03-17T03:53:01;3.80;99.90
51950;DHT22;37974;53.218;6.640;2024-03-17T03:55:26;3.10;99.90
51950;DHT22;37974;53.218;6.640;2024-03-17T03:57:52;3.20;99.90
51950;DHT22;37974;53.218;6.640;2024-03-17T04:00:19;4.00;99.90
51950;DHT22;37974;53.218;6.640;2024-03-17T04:02:55;3.20;99.90
51950;DHT22;37974;53.218;6.640;2024-03-17T04:05:21;3.50;99.90
51950;DHT22;37974;53.218;6.640;2024-03-17T04:07:48;3.20;99.90
51950;DHT22;37974;53.218;6.640;2024-03-17T04:10:15;3.80;99.90
51950;DHT22;37974;53.218;6.640;2024-03-17T04:12:41;3.30;99.90
51950;DHT22;37974;53.218;6.640;2024-03-17T04:15:08;3.80;99.90
51950;DHT22;37974;53.218;6.640;2024-03-17T04:17:36;3.30;99.90
51950;DHT22;37974;53.218;6.640;2024-03-17T04:20:03;3.90;99.90
51950;DHT22;37974;53.218;6.640;2024-03-17T04:22:30;3.30;99.90
51950;DHT22;37974;53.218;6.640;2024-03-17T04:24:56;3.40;99.90
51950;DHT22;37974;53.218;6.640;2024-03-17T04:27:23;3.70;99.90
51950;DHT22;37974;53.218;6.640;2024-03-17T04:29:54;3.50;99.90
51950;DHT22;37974;53.218;6.640;2024-03-17T04:32:21;3.40;99.90
51950;DHT22;37974;53.218;6.640;2024-03-17T04:34:47;3.40;99.90
51950;DHT22;37974;53.218;6.640;2024-03-17T04:37:13;3.40;99.90
51950;DHT22;37974;53.218;6.640;2024-03-17T04:39:40;3.50;99.90
51950;DHT22;37974;53.218;6.640;2024-03-17T04:42:07;3.50;99.90
51950;DHT22;37974;53.218;6.640;2024-03-17T04:44:33;3.60;99.90
51950;DHT22;37974;53.218;6.640;2024-03-17T04:46:58;3.60;99.90
51950;DHT22;37974;53.218;6.640;2024-03-17T04:49:24;3.80;99.90
51950;DHT22;37974;53.218;6.640;2024-03-17T04:51:50;3.60;99.90
51950;DHT22;37974;53.218;6.640;2024-03-17T04:54:16;3.60;99.90
51950;DHT22;37974;53.218;6.640;2024-03-17T04:56:41;4.50;99.90
51950;DHT22;37974;53.218;6.640;2024-03-17T04:59:07;3.50;99.90
51950;DHT22;37974;53.218;6.640;2024-03-17T05:01:33;3.70;99.90
51950;DHT22;37974;53.218;6.640;2024-03-17T05:04:03;4.70;99.90
51950;DHT22;37974;53.218;6.640;2024-03-17T05:06:29;3.70;99.90
51950;DHT22;37974;53.218;6.640;2024-03-17T05:08:55;3.80;99.90
51950;DHT22;37974;53.218;6.640;2024-03-17T05:11:21;3.70;99.90
51950;DHT22;37974;53.218;6.640;2024-03-17T05:13:46;3.70;99.90
51950;DHT22;37974;53.218;6.640;2024-03-17T05:16:12;3.70;99.90
51950;DHT22;37974;53.218;6.640;2024-03-17T05:18:38;3.80;99.90
51950;DHT22;37974;53.218;6.640;2024-03-17T05:21:06;3.70;99.90
51950;DHT22;37974;53.218;6.640;2024-03-17T05:23:33;3.70;99.90
51950;DHT22;37974;53.218;6.640;2024-03-17T05:26:00;3.70;99.90
51950;DHT22;37974;53.218;6.640;2024-03-17T05:28:27;3.80;99.90
51950;DHT22;37974;53.218;6.640;2024-03-17T05:30:53;3.80;99.90
51950;DHT22;37974;53.218;6.640;2024-03-17T05:33:20;3.70;99.90
51950;DHT22;37974;53.218;6.640;2024-03-17T05:35:52;4.20;99.90
51950;DHT22;37974;53.218;6.640;2024-03-17T05:38:20;3.80;99.90
51950;DHT22;37974;53.218;6.640;2024-03-17T05:40:55;3.80;99.90
51950;DHT22;37974;53.218;6.640;2024-03-17T05:43:22;3.80;99.90
51950;DHT22;37974;53.218;6.640;2024-03-17T05:45:50;4.00;99.90
51950;DHT22;37974;53.218;6.640;2024-03-17T05:48:17;3.80;99.90
51950;DHT22;37974;53.218;6.640;2024-03-17T05:50:42;3.80;99.90
51950;DHT22;37974;53.218;6.640;2024-03-17T05:53:08;3.90;99.90
51950;DHT22;37974;53.218;6.640;2024-03-17T05:55:35;3.90;99.90
51950;DHT22;37974;53.218;6.640;2024-03-17T05:58:02;4.20;99.90
51950;DHT22;37974;53.218;6.640;2024-03-17T06:00:28;3.90;99.90
51950;DHT22;37974;53.218;6.640;2024-03-17T06:02:54;3.90;99.90
51950;DHT22;37974;53.218;6.640;2024-03-17T06:05:19;4.00;99.90
51950;DHT22;37974;53.218;6.640;2024-03-17T06:07:45;4.00;99.90
51950;DHT22;37974;53.218;6.640;2024-03-17T06:10:12;4.10;99.90
51950;DHT22;37974;53.218;6.640;2024-03-17T06:12:38;4.00;99.90
51950;DHT22;37974;53.218;6.640;2024-03-17T06:15:04;4.00;99.90
51950;DHT22;37974;53.218;6.640;2024-03-17T06:17:30;4.00;99.90
51950;DHT22;37974;53.218;6.640;2024-03-17T06:19:55;4.00;99.90
51950;DHT22;37974;53.218;6.640;2024-03-17T06:22:23;4.10;99.90
51950;DHT22;37974;53.218;6.640;2024-03-17T06:24:49;4.00;99.90
51950;DHT22;37974;53.218;6.640;2024-03-17T06:27:15;4.70;99.90
51950;DHT22;37974;53.218;6.640;2024-03-17T06:29:41;4.10;99.90
51950;DHT22;37974;53.218;6.640;2024-03-17T06:32:08;4.10;99.90
51950;DHT22;37974;53.218;6.640;2024-03-17T06:34:34;4.20;99.90
51950;DHT22;37974;53.218;6.640;2024-03-17T06:37:00;4.30;99.90
51950;DHT22;37974;53.218;6.640;2024-03-17T06:39:26;4.40;99.90
51950;DHT22;37974;53.218;6.640;2024-03-17T06:41:51;4.50;99.90
51950;DHT22;37974;53.218;6.640;2024-03-17T06:44:17;4.60;99.90
51950;DHT22;37974;53.218;6.640;2024-03-17T06:46:45;4.60;99.90
51950;DHT22;37974;53.218;6.640;2024-03-17T06:49:12;4.70;99.90
51950;DHT22;37974;53.218;6.640;2024-03-17T06:51:38;4.80;99.90
51950;DHT22;37974;53.218;6.640;2024-03-17T06:54:04;4.90;99.90
51950;DHT22;37974;53.218;6.640;2024-03-17T06:56:29;4.90;99.90
51950;DHT22;37974;53.218;6.640;2024-03-17T06:58:58;4.90;99.90
51950;DHT22;37974;53.218;6.640;2024-03-17T07:01:23;5.00;99.90
51950;DHT22;37974;53.218;6.640;2024-03-17T07:03:49;5.10;99.90
51950;DHT22;37974;53.218;6.640;2024-03-17T07:06:15;5.20;99.90
51950;DHT22;37974;53.218;6.640;2024-03-17T07:08:41;5.20;99.90
51950;DHT22;37974;53.218;6.640;2024-03-17T07:11:08;5.30;99.90
51950;DHT22;37974;53.218;6.640;2024-03-17T07:13:35;5.40;99.90
51950;DHT22;37974;53.218;6.640;2024-03-17T07:16:03;5.50;99.90
51950;DHT22;37974;53.218;6.640;2024-03-17T07:18:31;5.50;99.90
51950;DHT22;37974;53.218;6.640;2024-03-17T07:20:59;5.60;99.90
51950;DHT22;37974;53.218;6.640;2024-03-17T07:23:26;5.70;99.90
51950;DHT22;37974;53.218;6.640;2024-03-17T07:28:19;5.90;99.90
51950;DHT22;37974;53.218;6.640;2024-03-17T07:30:48;6.00;99.90
51950;DHT22;37974;53.218;6.640;2024-03-17T07:33:14;6.10;99.90
51950;DHT22;37974;53.218;6.640;2024-03-17T07:35:48;6.20;99.90
51950;DHT22;37974;53.218;6.640;2024-03-17T07:38:14;6.30;99.90
51950;DHT22;37974;53.218;6.640;2024-03-17T07:40:40;6.40;99.90
51950;DHT22;37974;53.218;6.640;2024-03-17T07:43:05;6.50;99.90
51950;DHT22;37974;53.218;6.640;2024-03-17T07:45:31;6.70;99.90
51950;DHT22;37974;53.218;6.640;2024-03-17T07:47:57;6.60;99.90
51950;DHT22;37974;53.218;6.640;2024-03-17T07:50:22;6.70;99.90
51950;DHT22;37974;53.218;6.640;2024-03-17T07:52:48;6.70;99.90
51950;DHT22;37974;53.218;6.640;2024-03-17T07:55:14;6.80;99.90
51950;DHT22;37974;53.218;6.640;2024-03-17T07:57:39;6.80;99.90
51950;DHT22;37974;53.218;6.640;2024-03-17T08:00:07;6.90;99.90
51950;DHT22;37974;53.218;6.640;2024-03-17T08:02:44;6.90;99.90
51950;DHT22;37974;53.218;6.640;2024-03-17T08:05:10;7.00;99.90
51950;DHT22;37974;53.218;6.640;2024-03-17T08:07:36;7.00;99.90
51950;DHT22;37974;53.218;6.640;2024-03-17T08:10:02;7.00;99.90
51950;DHT22;37974;53.218;6.640;2024-03-17T08:12:29;7.10;99.90
51950;DHT22;37974;53.218;6.640;2024-03-17T08:14:55;7.10;99.90
51950;DHT22;37974;53.218;6.640;2024-03-17T08:17:21;7.10;99.90
51950;DHT22;37974;53.218;6.640;2024-03-17T08:19:47;7.10;99.90
51950;DHT22;37974;53.218;6.640;2024-03-17T08:22:13;7.20;99.90
51950;DHT22;37974;53.218;6.640;2024-03-17T08:24:40;7.20;99.90
51950;DHT22;37974;53.218;6.640;2024-03-17T08:27:06;7.20;99.90
51950;DHT22;37974;53.218;6.640;2024-03-17T08:29:32;7.30;99.90
51950;DHT22;37974;53.218;6.640;2024-03-17T08:31:58;7.40;99.90
51950;DHT22;37974;53.218;6.640;2024-03-17T08:34:24;7.40;99.90
51950;DHT22;37974;53.218;6.640;2024-03-17T08:36:50;7.40;99.90
51950;DHT22;37974;53.218;6.640;2024-03-17T08:39:16;7.50;99.90
51950;DHT22;37974;53.218;6.640;2024-03-17T08:41:42;7.60;99.90
51950;DHT22;37974;53.218;6.640;2024-03-17T08:44:10;7.80;99.90
51950;DHT22;37974;53.218;6.640;2024-03-17T08:46:35;7.80;99.90
51950;DHT22;37974;53.218;6.640;2024-03-17T08:49:01;7.90;99.90
51950;DHT22;37974;53.218;6.640;2024-03-17T08:51:27;8.00;99.90
51950;DHT22;37974;53.218;6.640;2024-03-17T08:53:54;8.00;99.90
51950;DHT22;37974;53.218;6.640;2024-03-17T08:56:19;8.10;99.90
51950;DHT22;37974;53.218;6.640;2024-03-17T08:58:48;8.10;99.90
51950;DHT22;37974;53.218;6.640;2024-03-17T09:01:15;8.20;99.90
51950;DHT22;37974;53.218;6.640;2024-03-17T09:03:41;8.20;99.90
51950;DHT22;37974;53.218;6.640;2024-03-17T09:06:15;8.20;99.90
51950;DHT22;37974;53.218;6.640;2024-03-17T09:08:42;8.30;99.90
51950;DHT22;37974;53.218;6.640;2024-03-17T09:11:12;8.30;99.90
51950;DHT22;37974;53.218;6.640;2024-03-17T09:13:38;8.30;99.90
51950;DHT22;37974;53.218;6.640;2024-03-17T09:16:04;8.40;99.90
51950;DHT22;37974;53.218;6.640;2024-03-17T09:18:32;8.40;99.90
51950;DHT22;37974;53.218;6.640;2024-03-17T09:21:02;8.50;99.90
51950;DHT22;37974;53.218;6.640;2024-03-17T09:23:29;8.50;99.90
51950;DHT22;37974;53.218;6.640;2024-03-17T09:28:22;8.60;99.90
51950;DHT22;37974;53.218;6.640;2024-03-17T09:30:48;8.70;99.90
51950;DHT22;37974;53.218;6.640;2024-03-17T09:33:15;8.80;99.90
51950;DHT22;37974;53.218;6.640;2024-03-17T09:35:59;8.90;99.90
51950;DHT22;37974;53.218;6.640;2024-03-17T09:38:26;9.00;99.90
51950;DHT22;37974;53.218;6.640;2024-03-17T09:40:52;9.10;99.90
51950;DHT22;37974;53.218;6.640;2024-03-17T09:43:20;9.20;99.90
51950;DHT22;37974;53.218;6.640;2024-03-17T09:45:47;9.30;99.90
51950;DHT22;37974;53.218;6.640;2024-03-17T09:48:15;9.40;99.90
51950;DHT22;37974;53.218;6.640;2024-03-17T09:50:51;9.60;99.90
51950;DHT22;37974;53.218;6.640;2024-03-17T09:53:23;9.70;99.90
51950;DHT22;37974;53.218;6.640;2024-03-17T09:55:49;9.80;99.90
51950;DHT22;37974;53.218;6.640;2024-03-17T09:58:16;9.80;99.90
51950;DHT22;37974;53.218;6.640;2024-03-17T10:00:44;9.90;99.90
51950;DHT22;37974;53.218;6.640;2024-03-17T10:03:09;9.90;99.90
51950;DHT22;37974;53.218;6.640;2024-03-17T10:05:35;9.90;99.90
51950;DHT22;37974;53.218;6.640;2024-03-17T10:08:01;10.00;99.90
51950;DHT22;37974;53.218;6.640;2024-03-17T10:10:27;10.00;99.90
51950;DHT22;37974;53.218;6.640;2024-03-17T10:13:12;10.00;99.90
51950;DHT22;37974;53.218;6.640;2024-03-17T10:15:48;10.00;99.90
51950;DHT22;37974;53.218;6.640;2024-03-17T10:18:21;10.00;99.90
51950;DHT22;37974;53.218;6.640;2024-03-17T10:20:48;9.90;99.90
51950;DHT22;37974;53.218;6.640;2024-03-17T10:23:18;9.90;99.90
51950;DHT22;37974;53.218;6.640;2024-03-17T10:25:44;9.90;99.90
51950;DHT22;37974;53.218;6.640;2024-03-17T10:28:11;9.90;99.90
51950;DHT22;37974;53.218;6.640;2024-03-17T10:30:39;9.80;99.90
51950;DHT22;37974;53.218;6.640;2024-03-17T10:33:06;9.80;99.90
51950;DHT22;37974;53.218;6.640;2024-03-17T10:35:35;9.90;99.90
51950;DHT22;37974;53.218;6.640;2024-03-17T10:38:09;9.90;99.90
51950;DHT22;37974;53.218;6.640;2024-03-17T10:40:38;10.00;99.90
51950;DHT22;37974;53.218;6.640;2024-03-17T10:43:05;10.00;99.90
51950;DHT22;37974;53.218;6.640;2024-03-17T10:45:32;10.10;99.90
51950;DHT22;37974;53.218;6.640;2024-03-17T10:48:07;10.20;99.90
51950;DHT22;37974;53.218;6.640;2024-03-17T10:50:37;10.10;99.90
51950;DHT22;37974;53.218;6.640;2024-03-17T10:53:04;10.20;99.90
51950;DHT22;37974;53.218;6.640;2024-03-17T10:55:44;10.20;99.90
51950;DHT22;37974;53.218;6.640;2024-03-17T10:58:23;10.20;99.90
51950;DHT22;37974;53.218;6.640;2024-03-17T11:00:51;10.30;99.90
51950;DHT22;37974;53.218;6.640;2024-03-17T11:03:18;10.30;99.90
51950;DHT22;37974;53.218;6.640;2024-03-17T11:05:48;10.30;99.90
51950;DHT22;37974;53.218;6.640;2024-03-17T11:08:16;10.30;99.90
51950;DHT22;37974;53.218;6.640;2024-03-17T11:10:49;10.30;99.90
51950;DHT22;37974;53.218;6.640;2024-03-17T11:13:26;10.40;99.90
51950;DHT22;37974;53.218;6.640;2024-03-17T11:15:52;10.50;99.90
51950;DHT22;37974;53.218;6.640;2024-03-17T11:21:03;10.60;99.90
51950;DHT22;37974;53.218;6.640;2024-03-17T11:23:38;10.70;99.90
51950;DHT22;37974;53.218;6.640;2024-03-17T11:26:05;10.80;99.90
51950;DHT22;37974;53.218;6.640;2024-03-17T11:34:03;11.20;99.90
51950;DHT22;37974;53.218;6.640;2024-03-17T11:36:35;11.30;99.90
51950;DHT22;37974;53.218;6.640;2024-03-17T11:39:07;11.50;99.90
51950;DHT22;37974;53.218;6.640;2024-03-17T11:41:47;11.60;99.90
51950;DHT22;37974;53.218;6.640;2024-03-17T11:46:55;11.70;99.90
51950;DHT22;37974;53.218;6.640;2024-03-17T11:49:23;11.80;99.90
51950;DHT22;37974;53.218;6.640;2024-03-17T11:51:51;11.80;99.90
51950;DHT22;37974;53.218;6.640;2024-03-17T11:54:19;11.80;99.90
51950;DHT22;37974;53.218;6.640;2024-03-17T11:56:47;11.80;99.90
51950;DHT22;37974;53.218;6.640;2024-03-17T11:59:13;11.80;99.90
51950;DHT22;37974;53.218;6.640;2024-03-17T12:01:39;11.70;99.90
51950;DHT22;37974;53.218;6.640;2024-03-17T12:04:06;11.70;99.90
51950;DHT22;37974;53.218;6.640;2024-03-17T12:06:33;11.70;99.90
51950;DHT22;37974;53.218;6.640;2024-03-17T12:09:18;11.60;99.90
51950;DHT22;37974;53.218;6.640;2024-03-17T12:11:47;11.60;99.90
51950;DHT22;37974;53.218;6.640;2024-03-17T12:14:17;11.60;99.90
51950;DHT22;37974;53.218;6.640;2024-03-17T12:16:49;11.60;99.90
51950;DHT22;37974;53.218;6.640;2024-03-17T12:19:16;11.60;99.90
51950;DHT22;37974;53.218;6.640;2024-03-17T12:21:46;11.60;99.90
51950;DHT22;37974;53.218;6.640;2024-03-17T12:24:19;11.60;99.90
51950;DHT22;37974;53.218;6.640;2024-03-17T12:26:46;11.70;99.90
51950;DHT22;37974;53.218;6.640;2024-03-17T12:29:33;11.70;99.90
51950;DHT22;37974;53.218;6.640;2024-03-17T12:32:06;11.70;99.90
51950;DHT22;37974;53.218;6.640;2024-03-17T12:34:36;11.80;99.90
51950;DHT22;37974;53.218;6.640;2024-03-17T12:37:02;11.80;99.90
51950;DHT22;37974;53.218;6.640;2024-03-17T12:39:33;11.80;99.90
51950;DHT22;37974;53.218;6.640;2024-03-17T12:42:06;11.80;99.90
51950;DHT22;37974;53.218;6.640;2024-03-17T12:47:03;12.00;99.90
51950;DHT22;37974;53.218;6.640;2024-03-17T12:49:30;12.00;99.90
51950;DHT22;37974;53.218;6.640;2024-03-17T12:51:56;12.00;99.90
51950;DHT22;37974;53.218;6.640;2024-03-17T12:54:25;12.00;99.90
51950;DHT22;37974;53.218;6.640;2024-03-17T12:56:53;12.00;99.90
51950;DHT22;37974;53.218;6.640;2024-03-17T12:59:47;12.00;99.90
51950;DHT22;37974;53.218;6.640;2024-03-17T13:02:31;12.10;99.90
51950;DHT22;37974;53.218;6.640;2024-03-17T13:05:19;12.10;99.90
51950;DHT22;37974;53.218;6.640;2024-03-17T13:07:47;12.10;99.90
51950;DHT22;37974;53.218;6.640;2024-03-17T13:10:14;12.10;99.90
51950;DHT22;37974;53.218;6.640;2024-03-17T13:12:40;12.10;99.90
51950;DHT22;37974;53.218;6.640;2024-03-17T13:15:09;12.00;99.90
51950;DHT22;37974;53.218;6.640;2024-03-17T13:17:36;12.00;99.90
51950;DHT22;37974;53.218;6.640;2024-03-17T13:20:02;12.00;99.90
51950;DHT22;37974;53.218;6.640;2024-03-17T13:22:29;12.10;99.90
51950;DHT22;37974;53.218;6.640;2024-03-17T13:24:55;12.00;99.90
51950;DHT22;37974;53.218;6.640;2024-03-17T13:27:20;11.90;99.90
51950;DHT22;37974;53.218;6.640;2024-03-17T13:29:48;11.90;99.90
51950;DHT22;37974;53.218;6.640;2024-03-17T13:32:14;11.90;99.90
51950;DHT22;37974;53.218;6.640;2024-03-17T13:34:41;11.80;99.90
51950;DHT22;37974;53.218;6.640;2024-03-17T13:37:07;11.80;99.90
51950;DHT22;37974;53.218;6.640;2024-03-17T13:39:33;11.70;99.90
51950;DHT22;37974;53.218;6.640;2024-03-17T13:42:00;11.70;99.90
51950;DHT22;37974;53.218;6.640;2024-03-17T13:44:32;11.60;99.90
51950;DHT22;37974;53.218;6.640;2024-03-17T13:46:58;11.70;99.90
51950;DHT22;37974;53.218;6.640;2024-03-17T13:49:24;11.60;99.90
51950;DHT22;37974;53.218;6.640;2024-03-17T13:51:52;11.60;99.90
51950;DHT22;37974;53.218;6.640;2024-03-17T13:54:18;11.60;99.90
51950;DHT22;37974;53.218;6.640;2024-03-17T13:56:48;11.50;99.90
51950;DHT22;37974;53.218;6.640;2024-03-17T13:59:15;11.50;99.90
51950;DHT22;37974;53.218;6.640;2024-03-17T14:01:43;11.60;99.90
51950;DHT22;37974;53.218;6.640;2024-03-17T14:04:14;11.60;99.90
51950;DHT22;37974;53.218;6.640;2024-03-17T14:06:44;11.60;99.90
51950;DHT22;37974;53.218;6.640;2024-03-17T14:09:10;11.60;99.90
51950;DHT22;37974;53.218;6.640;2024-03-17T14:11:36;11.60;99.90
51950;DHT22;37974;53.218;6.640;2024-03-17T14:14:02;11.60;99.90
51950;DHT22;37974;53.218;6.640;2024-03-17T14:16:30;11.60;99.90
51950;DHT22;37974;53.218;6.640;2024-03-17T14:18:57;11.60;99.90
51950;DHT22;37974;53.218;6.640;2024-03-17T14:21:23;11.50;99.90
51950;DHT22;37974;53.218;6.640;2024-03-17T14:23:48;11.50;99.90
51950;DHT22;37974;53.218;6.640;2024-03-17T14:26:14;11.60;99.90
51950;DHT22;37974;53.218;6.640;2024-03-17T14:28:40;11.50;99.90
51950;DHT22;37974;53.218;6.640;2024-03-17T14:31:06;11.50;99.90
51950;DHT22;37974;53.218;6.640;2024-03-17T14:33:32;11.50;99.90
51950;DHT22;37974;53.218;6.640;2024-03-17T14:35:58;11.50;99.90
51950;DHT22;37974;53.218;6.640;2024-03-17T14:38:23;11.50;99.90
51950;DHT22;37974;53.218;6.640;2024-03-17T14:40:55;11.40;99.90
51950;DHT22;37974;53.218;6.640;2024-03-17T14:43:21;11.40;99.90
51950;DHT22;37974;53.218;6.640;2024-03-17T14:45:47;11.40;99.90
51950;DHT22;37974;53.218;6.640;2024-03-17T14:48:13;11.30;99.90
51950;DHT22;37974;53.218;6.640;2024-03-17T14:50:39;11.30;99.90
51950;DHT22;37974;53.218;6.640;2024-03-17T14:53:06;11.30;99.90
51950;DHT22;37974;53.218;6.640;2024-03-17T14:55:32;11.30;99.90
51950;DHT22;37974;53.218;6.640;2024-03-17T14:57:58;11.20;99.90
51950;DHT22;37974;53.218;6.640;2024-03-17T15:00:25;11.20;99.90
51950;DHT22;37974;53.218;6.640;2024-03-17T15:02:51;11.20;99.90
51950;DHT22;37974;53.218;6.640;2024-03-17T15:05:18;11.20;99.90
51950;DHT22;37974;53.218;6.640;2024-03-17T15:07:45;11.20;99.90
51950;DHT22;37974;53.218;6.640;2024-03-17T15:10:11;11.20;99.90
51950;DHT22;37974;53.218;6.640;2024-03-17T15:12:38;11.20;99.90
51950;DHT22;37974;53.218;6.640;2024-03-17T15:15:06;11.20;99.90
51950;DHT22;37974;53.218;6.640;2024-03-17T15:17:34;11.20;99.90
51950;DHT22;37974;53.218;6.640;2024-03-17T15:20:00;11.20;99.90
51950;DHT22;37974;53.218;6.640;2024-03-17T15:22:26;11.10;99.90
51950;DHT22;37974;53.218;6.640;2024-03-17T15:24:52;11.10;99.90
51950;DHT22;37974;53.218;6.640;2024-03-17T15:27:19;11.10;99.90
51950;DHT22;37974;53.218;6.640;2024-03-17T15:29:45;11.10;99.90
51950;DHT22;37974;53.218;6.640;2024-03-17T15:32:11;11.10;99.90
51950;DHT22;37974;53.218;6.640;2024-03-17T15:34:37;11.10;99.90
51950;DHT22;37974;53.218;6.640;2024-03-17T15:37:05;11.10;99.90
51950;DHT22;37974;53.218;6.640;2024-03-17T15:39:31;11.10;99.90
51950;DHT22;37974;53.218;6.640;2024-03-17T15:41:56;11.00;99.90
51950;DHT22;37974;53.218;6.640;2024-03-17T15:44:23;11.00;99.90
51950;DHT22;37974;53.218;6.640;2024-03-17T15:46:49;11.00;99.90
51950;DHT22;37974;53.218;6.640;2024-03-17T15:49:15;11.00;99.90
51950;DHT22;37974;53.218;6.640;2024-03-17T15:51:40;11.00;99.90
51950;DHT22;37974;53.218;6.640;2024-03-17T15:54:07;11.00;99.90
51950;DHT22;37974;53.218;6.640;2024-03-17T15:56:33;11.00;99.90
51950;DHT22;37974;53.218;6.640;2024-03-17T15:58:59;11.00;99.90